Time;durP1;ratioP1;P1;durP2;ratioP2;P2;SDS_P1;SDS_P2;PMS_P1;PMS_P2;Temp;Humidity;BMP_temperature;BMP_pressure;BME280_temperature;BME280_humidity;BME280_pressure;Samples;Min_cycle;Max_cycle;Signal;HPM_P1;HPM_P2
2021/10/09 00:00:24;;;;;;;14.07;6.05;;;;;;;;;;5034787;28;20021;-53
2021/10/09 00:02:50;;;;;;;15.75;7.50;;;;;;;;;;5032758;28;20455;-53
2021/10/09 00:05:16;;;;;;;13.55;6.80;;;;;;;;;;5033446;28;20112;-52
2021/10/09 00:07:42;;;;;;;12.25;6.38;;;;;;;;;;5034748;28;20029;-53
2021/10/09 00:10:08;;;;;;;14.93;6.95;;;;;;;;;;5034261;28;20356;-53
2021/10/09 00:12:35;;;;;;;12.52;5.93;;;;;;;;;;5034323;28;20345;-53
2021/10/09 00:15:02;;;;;;;15.43;7.55;;;;;;;;;;5033427;28;20124;-53
2021/10/09 00:17:29;;;;;;;18.25;8.13;;;;;;;;;;5033570;28;20029;-53
2021/10/09 00:19:55;;;;;;;16.98;7.20;;;;;;;;;;5033460;28;20014;-53
2021/10/09 00:22:21;;;;;;;15.65;6.88;;;;;;;;;;5034545;28;20033;-53
2021/10/09 00:24:47;;;;;;;15.98;7.45;;;;;;;;;;5033325;28;20022;-53
2021/10/09 00:27:13;;;;;;;13.45;5.85;;;;;;;;;;5033972;28;20459;-53
2021/10/09 00:29:40;;;;;;;12.90;7.03;;;;;;;;;;5034067;28;20099;-53
2021/10/09 00:32:06;;;;;;;14.43;6.10;;;;;;;;;;5033958;28;20038;-53
2021/10/09 00:34:32;;;;;;;12.60;6.18;;;;;;;;;;5033329;28;20053;-53
2021/10/09 00:36:58;;;;;;;13.60;6.53;;;;;;;;;;5033464;28;20371;-53
2021/10/09 00:39:24;;;;;;;17.10;6.55;;;;;;;;;;5033816;28;20030;-53
2021/10/09 00:41:50;;;;;;;14.65;6.68;;;;;;;;;;5033853;28;20033;-53
2021/10/09 00:44:17;;;;;;;15.45;7.25;;;;;;;;;;5033209;28;20029;-53
2021/10/09 00:46:44;;;;;;;14.48;6.38;;;;;;;;;;5033924;28;20021;-53
2021/10/09 00:49:16;;;;;;;17.10;7.53;;;;;;;;;;5033200;28;20025;-53
2021/10/09 00:51:46;;;;;;;16.52;7.13;;;;;;;;;;5033368;28;20375;-53
2021/10/09 00:54:13;;;;;;;13.30;6.50;;;;;;;;;;5033266;28;20034;-53
2021/10/09 00:56:43;;;;;;;14.80;6.28;;;;;;;;;;5033608;28;20033;-53
2021/10/09 00:59:13;;;;;;;14.60;6.90;;;;;;;;;;5034021;28;20022;-53
2021/10/09 01:01:39;;;;;;;8.90;5.18;;;;;;;;;;5031151;28;20052;-53
2021/10/09 01:04:06;;;;;;;18.88;7.60;;;;;;;;;;5032795;28;20022;-53
2021/10/09 01:06:32;;;;;;;14.30;6.97;;;;;;;;;;5033447;28;20348;-53
2021/10/09 01:08:58;;;;;;;16.40;7.20;;;;;;;;;;5033375;28;20473;-53
2021/10/09 01:11:24;;;;;;;13.75;6.40;;;;;;;;;;5033052;28;20044;-53
2021/10/09 01:13:50;;;;;;;16.90;6.57;;;;;;;;;;5032532;28;20393;-54
2021/10/09 01:16:20;;;;;;;14.35;6.63;;;;;;;;;;5033314;28;20045;-53
2021/10/09 01:18:50;;;;;;;18.67;6.85;;;;;;;;;;5033157;28;20083;-53
2021/10/09 01:21:17;;;;;;;13.90;6.65;;;;;;;;;;5032912;28;20033;-53
2021/10/09 01:23:43;;;;;;;11.30;6.63;;;;;;;;;;5032122;28;20033;-53
2021/10/09 01:26:10;;;;;;;15.88;6.82;;;;;;;;;;5032851;28;20024;-53
2021/10/09 01:28:37;;;;;;;13.60;6.25;;;;;;;;;;5032958;28;20018;-53
2021/10/09 01:31:03;;;;;;;16.75;7.70;;;;;;;;;;5032986;28;20041;-53
2021/10/09 01:33:29;;;;;;;13.55;6.15;;;;;;;;;;5031995;28;20061;-52
2021/10/09 01:35:56;;;;;;;12.80;6.03;;;;;;;;;;5032812;28;20076;-53
2021/10/09 01:38:22;;;;;;;12.27;6.03;;;;;;;;;;5032819;28;20351;-53
2021/10/09 01:40:48;;;;;;;10.65;5.63;;;;;;;;;;5032773;28;20076;-53
2021/10/09 01:43:16;;;;;;;16.00;5.80;;;;;;;;;;5032707;28;20036;-53
2021/10/09 01:45:42;;;;;;;11.15;5.45;;;;;;;;;;5032374;28;20017;-53
2021/10/09 01:48:08;;;;;;;11.65;5.90;;;;;;;;;;5033081;28;20025;-53
2021/10/09 01:50:34;;;;;;;14.07;6.05;;;;;;;;;;5033099;28;20018;-53
2021/10/09 01:53:01;;;;;;;7.57;4.65;;;;;;;;;;5032800;28;20034;-53
2021/10/09 01:55:27;;;;;;;16.38;7.28;;;;;;;;;;5031603;28;20025;-53
2021/10/09 01:57:54;;;;;;;16.08;6.53;;;;;;;;;;5032928;28;20415;-53
2021/10/09 02:00:20;;;;;;;11.05;5.63;;;;;;;;;;5032599;28;20087;-53
2021/10/09 02:02:46;;;;;;;14.80;4.78;;;;;;;;;;5030802;28;20025;-53
2021/10/09 02:05:12;;;;;;;15.98;6.18;;;;;;;;;;5031630;28;20075;-53
2021/10/09 02:07:38;;;;;;;13.05;5.68;;;;;;;;;;5032888;28;20117;-53
2021/10/09 02:10:04;;;;;;;14.13;5.85;;;;;;;;;;5026086;28;20041;-53
2021/10/09 02:12:32;;;;;;;12.10;5.50;;;;;;;;;;5032403;28;20463;-53
2021/10/09 02:25:49;;;;;;;11.30;5.03;;;;;;;;;;5031473;28;20041;-53
2021/10/09 02:28:19;;;;;;;10.55;5.45;;;;;;;;;;5032424;28;20029;-54
2021/10/09 02:30:45;;;;;;;22.02;6.25;;;;;;;;;;5046881;28;20027;-53
2021/10/09 02:33:11;;;;;;;15.65;5.38;;;;;;;;;;5052403;28;20044;-53
2021/10/09 02:35:37;;;;;;;12.30;6.05;;;;;;;;;;5051673;28;20040;-53
2021/10/09 02:38:04;;;;;;;10.57;4.75;;;;;;;;;;5052369;28;20048;-53
2021/10/09 02:40:30;;;;;;;16.70;5.88;;;;;;;;;;5052308;28;20106;-53
2021/10/09 02:42:56;;;;;;;9.50;5.03;;;;;;;;;;5052338;28;20438;-53
2021/10/09 02:45:22;;;;;;;9.98;5.13;;;;;;;;;;5050754;28;20066;-53
2021/10/09 02:47:48;;;;;;;20.75;5.35;;;;;;;;;;5052039;28;20044;-53
2021/10/09 02:50:14;;;;;;;10.13;5.90;;;;;;;;;;5052615;28;20111;-53
2021/10/09 02:52:41;;;;;;;14.25;4.82;;;;;;;;;;5055673;28;20477;-53
2021/10/09 02:55:07;;;;;;;10.45;5.13;;;;;;;;;;5054554;28;20075;-53
2021/10/09 02:57:34;;;;;;;12.98;5.32;;;;;;;;;;5055842;28;20116;-53
2021/10/09 03:00:00;;;;;;;12.65;5.50;;;;;;;;;;5055575;28;20352;-53
2021/10/09 03:02:26;;;;;;;10.57;5.35;;;;;;;;;;5054711;28;20135;-53
2021/10/09 03:04:52;;;;;;;8.68;5.45;;;;;;;;;;5054975;28;20029;-54
2021/10/09 03:07:18;;;;;;;14.57;5.97;;;;;;;;;;5055491;28;20039;-53
2021/10/09 03:09:44;;;;;;;15.68;5.22;;;;;;;;;;5055727;28;20363;-53
2021/10/09 03:12:10;;;;;;;11.48;5.20;;;;;;;;;;5055268;28;20069;-53
2021/10/09 03:14:36;;;;;;;10.20;5.32;;;;;;;;;;5054838;28;20476;-53
2021/10/09 03:17:02;;;;;;;8.05;4.57;;;;;;;;;;5055148;28;20029;-53
2021/10/09 03:19:28;;;;;;;14.77;5.10;;;;;;;;;;5055389;28;20140;-53
2021/10/09 03:21:53;;;;;;;12.57;4.90;;;;;;;;;;5035317;28;20024;-53
2021/10/09 03:24:20;;;;;;;14.88;5.65;;;;;;;;;;5034804;28;20418;-53
2021/10/09 03:26:46;;;;;;;12.15;5.22;;;;;;;;;;5035032;28;20034;-53
2021/10/09 03:29:12;;;;;;;9.57;4.80;;;;;;;;;;5035164;28;20479;-53
2021/10/09 03:31:38;;;;;;;13.38;5.10;;;;;;;;;;5035024;28;20041;-53
2021/10/09 03:34:04;;;;;;;11.80;5.68;;;;;;;;;;5034778;28;20072;-53
2021/10/09 03:36:30;;;;;;;16.30;6.25;;;;;;;;;;5034829;28;20032;-53
2021/10/09 03:38:56;;;;;;;8.65;4.60;;;;;;;;;;5035172;28;20025;-53
2021/10/09 03:41:22;;;;;;;11.68;5.03;;;;;;;;;;5035109;28;20051;-53
2021/10/09 03:43:48;;;;;;;9.50;5.07;;;;;;;;;;5033973;28;20507;-53
2021/10/09 03:46:26;;;;;;;17.15;5.90;;;;;;;;;;5035066;28;20028;-53
2021/10/09 03:54:12;;;;;;;9.55;5.50;;;;;;;;;;5034070;28;20084;-53
2021/10/09 03:56:38;;;;;;;18.80;6.47;;;;;;;;;;5034807;28;20025;-53
2021/10/09 03:59:04;;;;;;;12.57;5.43;;;;;;;;;;5034569;28;20033;-53
2021/10/09 04:01:31;;;;;;;13.95;5.63;;;;;;;;;;5033413;28;20021;-52
2021/10/09 04:03:57;;;;;;;13.60;5.70;;;;;;;;;;5033972;28;20034;-53
2021/10/09 04:06:23;;;;;;;13.18;5.30;;;;;;;;;;5034738;28;20048;-53
2021/10/09 04:08:49;;;;;;;11.18;5.82;;;;;;;;;;5034612;28;20034;-53
2021/10/09 04:11:15;;;;;;;15.13;6.40;;;;;;;;;;5033886;28;20045;-53
2021/10/09 04:13:41;;;;;;;13.25;6.05;;;;;;;;;;5033418;28;20068;-53
2021/10/09 04:16:07;;;;;;;13.18;6.22;;;;;;;;;;5034022;28;20025;-53
2021/10/09 04:18:33;;;;;;;17.30;7.00;;;;;;;;;;5034517;28;20769;-52
2021/10/09 04:20:59;;;;;;;10.73;5.88;;;;;;;;;;5034227;28;20017;-53
2021/10/09 04:23:25;;;;;;;13.63;6.97;;;;;;;;;;5034139;28;20052;-53
2021/10/09 04:25:51;;;;;;;10.93;5.00;;;;;;;;;;5033954;28;20377;-53
2021/10/09 04:28:17;;;;;;;12.63;5.18;;;;;;;;;;5034120;28;20029;-53
2021/10/09 04:30:43;;;;;;;11.90;6.88;;;;;;;;;;5033799;28;20526;-53
2021/10/09 04:33:09;;;;;;;12.23;5.43;;;;;;;;;;5033693;28;20041;-53
2021/10/09 04:35:35;;;;;;;13.30;7.28;;;;;;;;;;5033563;28;20450;-53
2021/10/09 04:38:07;;;;;;;13.75;6.70;;;;;;;;;;5033803;28;20135;-53
2021/10/09 04:40:33;;;;;;;21.08;6.38;;;;;;;;;;5033760;28;20451;-52
2021/10/09 04:42:59;;;;;;;14.15;6.13;;;;;;;;;;5033944;28;20029;-53
2021/10/09 04:45:25;;;;;;;14.50;6.75;;;;;;;;;;5033385;28;20507;-53
2021/10/09 04:47:51;;;;;;;18.20;6.80;;;;;;;;;;5033641;28;20033;-52
2021/10/09 04:50:17;;;;;;;13.48;6.68;;;;;;;;;;5033482;28;20029;-53
2021/10/09 04:52:43;;;;;;;14.35;6.47;;;;;;;;;;5033748;28;20030;-53
2021/10/09 04:55:09;;;;;;;15.40;6.88;;;;;;;;;;5033106;28;20427;-52
2021/10/09 04:57:35;;;;;;;15.30;5.88;;;;;;;;;;5033721;28;20030;-53
2021/10/09 05:00:01;;;;;;;14.23;5.65;;;;;;;;;;5033641;28;20075;-53
2021/10/09 05:02:27;;;;;;;12.38;6.55;;;;;;;;;;5032424;28;20022;-53
2021/10/09 05:04:53;;;;;;;13.95;7.07;;;;;;;;;;5032445;28;20109;-53
2021/10/09 05:07:19;;;;;;;17.92;6.85;;;;;;;;;;5033140;28;20052;-52
2021/10/09 05:09:47;;;;;;;16.00;6.80;;;;;;;;;;5033493;28;20028;-53
2021/10/09 05:12:13;;;;;;;14.95;6.53;;;;;;;;;;5033057;28;20048;-53
2021/10/09 05:14:39;;;;;;;15.80;6.93;;;;;;;;;;5031781;28;20029;-53
2021/10/09 05:17:05;;;;;;;14.45;6.63;;;;;;;;;;5033394;28;20034;-53
2021/10/09 05:19:31;;;;;;;14.38;6.78;;;;;;;;;;5033153;28;20473;-53
2021/10/09 05:21:57;;;;;;;17.63;6.78;;;;;;;;;;5032599;28;20026;-53
2021/10/09 05:24:23;;;;;;;13.23;6.78;;;;;;;;;;5032461;28;20459;-53
2021/10/09 05:26:49;;;;;;;14.90;6.35;;;;;;;;;;5033041;28;20112;-53
2021/10/09 05:29:17;;;;;;;16.20;7.32;;;;;;;;;;5033341;28;20100;-53
2021/10/09 05:31:43;;;;;;;13.70;7.10;;;;;;;;;;5032748;28;20037;-53
2021/10/09 05:34:11;;;;;;;15.48;7.63;;;;;;;;;;5032275;28;20387;-52
2021/10/09 05:36:37;;;;;;;24.20;8.45;;;;;;;;;;5033019;28;20057;-53
2021/10/09 05:39:03;;;;;;;13.98;7.40;;;;;;;;;;5032969;28;20060;-53
2021/10/09 05:41:30;;;;;;;15.23;7.28;;;;;;;;;;5032963;28;20041;-53
2021/10/09 05:43:56;;;;;;;18.27;8.02;;;;;;;;;;5031750;28;20091;-53
2021/10/09 05:46:23;;;;;;;20.00;7.22;;;;;;;;;;5033319;28;20049;-53
2021/10/09 05:48:50;;;;;;;16.15;7.25;;;;;;;;;;5032885;28;20033;-53
2021/10/09 05:51:23;;;;;;;17.95;8.98;;;;;;;;;;5032758;28;20030;-53
2021/10/09 05:54:07;;;;;;;22.75;8.40;;;;;;;;;;5031898;28;20490;-52
2021/10/09 05:56:56;;;;;;;16.13;7.20;;;;;;;;;;5033119;28;20384;-53
2021/10/09 06:32:25;;;;;;;17.45;8.13;;;;;;;;;;5056258;28;20132;-53
2021/10/09 06:38:14;;;;;;;23.30;8.35;;;;;;;;;;5055747;28;20075;-54
2021/10/09 06:48:54;;;;;;;19.35;9.40;;;;;;;;;;5054854;28;20060;-53
2021/10/09 06:59:35;;;;;;;24.05;9.75;;;;;;;;;;5055968;28;20418;-53
2021/10/09 07:02:01;;;;;;;16.65;8.13;;;;;;;;;;5055250;28;20060;-53
2021/10/09 07:04:27;;;;;;;21.77;9.82;;;;;;;;;;5054956;28;20036;-52
2021/10/09 07:06:55;;;;;;;18.05;8.55;;;;;;;;;;5055408;28;20032;-53
2021/10/09 07:09:21;;;;;;;21.85;9.63;;;;;;;;;;5055501;28;20134;-53
2021/10/09 07:11:47;;;;;;;20.00;8.75;;;;;;;;;;5055324;28;20520;-53
2021/10/09 07:14:13;;;;;;;26.65;9.50;;;;;;;;;;5054875;28;20021;-52
2021/10/09 07:16:39;;;;;;;21.85;9.00;;;;;;;;;;5055738;28;20123;-53
2021/10/09 07:19:05;;;;;;;23.23;8.88;;;;;;;;;;5055240;28;20347;-53
2021/10/09 07:21:31;;;;;;;17.48;7.88;;;;;;;;;;5055284;28;20131;-53
2021/10/09 07:23:57;;;;;;;19.95;9.50;;;;;;;;;;5054192;28;20056;-53
2021/10/09 07:26:23;;;;;;;19.42;9.27;;;;;;;;;;5055433;28;20108;-53
2021/10/09 07:28:49;;;;;;;17.75;8.35;;;;;;;;;;5055234;28;20041;-53
2021/10/09 07:31:16;;;;;;;20.42;8.32;;;;;;;;;;5054990;28;20551;-53
2021/10/09 07:33:42;;;;;;;27.38;10.15;;;;;;;;;;5054224;28;20029;-53
2021/10/09 07:36:08;;;;;;;22.30;9.30;;;;;;;;;;5054442;28;20021;-53
2021/10/09 07:38:34;;;;;;;23.33;10.18;;;;;;;;;;5054807;28;20025;-53
2021/10/09 07:41:00;;;;;;;18.27;8.57;;;;;;;;;;5055104;28;20017;-53
2021/10/09 07:43:26;;;;;;;26.67;9.73;;;;;;;;;;5054710;28;20104;-53
2021/10/09 07:45:52;;;;;;;23.20;9.57;;;;;;;;;;5054232;28;20101;-53
2021/10/09 07:48:18;;;;;;;20.92;9.27;;;;;;;;;;5055189;28;20502;-53
2021/10/09 07:50:44;;;;;;;16.55;8.38;;;;;;;;;;5054250;28;20029;-53
2021/10/09 07:53:10;;;;;;;21.40;9.73;;;;;;;;;;5054765;28;20375;-53
2021/10/09 07:55:36;;;;;;;21.48;8.80;;;;;;;;;;5053866;28;20021;-53
2021/10/09 07:58:02;;;;;;;26.90;10.13;;;;;;;;;;5054744;28;20040;-53
2021/10/09 08:00:28;;;;;;;18.73;8.15;;;;;;;;;;5054741;28;20106;-53
2021/10/09 08:02:54;;;;;;;21.52;8.63;;;;;;;;;;5053619;28;20438;-53
2021/10/09 08:05:23;;;;;;;18.13;9.10;;;;;;;;;;5053058;28;20021;-53
2021/10/09 08:07:50;;;;;;;26.92;10.05;;;;;;;;;;5054331;28;20024;-53
2021/10/09 08:10:16;;;;;;;22.20;9.95;;;;;;;;;;5054290;28;20028;-53
2021/10/09 08:12:42;;;;;;;16.77;8.40;;;;;;;;;;5054179;28;20443;-53
2021/10/09 08:15:09;;;;;;;20.23;8.55;;;;;;;;;;5053508;28;20024;-53
2021/10/09 08:17:36;;;;;;;18.85;9.00;;;;;;;;;;5054700;28;20033;-53
2021/10/09 08:20:03;;;;;;;20.98;9.13;;;;;;;;;;5053882;28;20104;-53
2021/10/09 08:22:30;;;;;;;30.08;10.52;;;;;;;;;;5054228;28;20059;-53
2021/10/09 08:41:00;;;;;;;16.50;8.68;;;;;;;;;;5054030;28;20048;-53
2021/10/09 08:43:26;;;;;;;16.75;8.85;;;;;;;;;;5053456;28;20447;-54
2021/10/09 08:45:52;;;;;;;19.80;9.68;;;;;;;;;;5053247;28;20410;-53
2021/10/09 08:48:18;;;;;;;19.95;9.70;;;;;;;;;;5052978;28;20024;-53
2021/10/09 08:50:45;;;;;;;17.75;8.40;;;;;;;;;;5053556;28;20017;-54
2021/10/09 08:53:12;;;;;;;19.77;9.10;;;;;;;;;;5053246;28;20033;-54
2021/10/09 08:55:39;;;;;;;28.00;10.30;;;;;;;;;;5052743;28;20514;-53
2021/10/09 08:58:11;;;;;;;21.23;9.57;;;;;;;;;;5053525;28;20039;-53
2021/10/09 09:00:43;;;;;;;24.65;9.95;;;;;;;;;;5053609;28;20029;-53
2021/10/09 09:03:14;;;;;;;22.20;9.55;;;;;;;;;;5052100;28;20025;-53
2021/10/09 09:41:41;;;;;;;27.95;13.45;;;;;;;;;;5053245;28;20378;-53
2021/10/09 09:44:09;;;;;;;22.38;10.82;;;;;;;;;;5052305;28;20108;-53
2021/10/09 09:46:36;;;;;;;23.13;10.48;;;;;;;;;;5052810;28;20347;-53
2021/10/09 09:49:02;;;;;;;22.83;11.07;;;;;;;;;;5052592;28;20069;-53
2021/10/09 09:51:28;;;;;;;25.50;10.32;;;;;;;;;;5052889;28;20116;-53
2021/10/09 09:53:55;;;;;;;30.02;11.32;;;;;;;;;;5051957;28;20366;-53
2021/10/09 09:56:22;;;;;;;23.80;11.70;;;;;;;;;;5052946;28;20029;-53
2021/10/09 09:58:54;;;;;;;25.42;12.75;;;;;;;;;;5052731;28;20458;-53
2021/10/09 10:01:20;;;;;;;24.58;9.38;;;;;;;;;;5055337;28;20032;-53
2021/10/09 10:03:47;;;;;;;40.70;11.90;;;;;;;;;;5055815;28;20391;-53
2021/10/09 10:06:14;;;;;;;24.67;9.32;;;;;;;;;;5056576;28;20021;-53
2021/10/09 10:08:41;;;;;;;30.70;14.07;;;;;;;;;;5056782;28;20028;-53
2021/10/09 10:11:08;;;;;;;30.98;12.85;;;;;;;;;;5056590;28;20031;-53
2021/10/09 10:13:35;;;;;;;19.35;9.77;;;;;;;;;;5056325;28;20033;-53
2021/10/09 10:16:05;;;;;;;20.95;10.32;;;;;;;;;;5056757;28;20060;-53
2021/10/09 10:18:48;;;;;;;34.47;10.70;;;;;;;;;;5056735;28;20485;-53
2021/10/09 10:21:14;;;;;;;21.80;9.32;;;;;;;;;;5056103;28;20029;-53
2021/10/09 10:23:42;;;;;;;25.40;11.90;;;;;;;;;;5055844;28;20522;-53
2021/10/09 10:26:22;;;;;;;21.70;9.88;;;;;;;;;;5055872;28;20082;-53
2021/10/09 10:28:54;;;;;;;28.65;9.68;;;;;;;;;;5056736;28;20021;-53
2021/10/09 10:31:20;;;;;;;23.25;10.27;;;;;;;;;;5055916;28;20033;-53
2021/10/09 10:33:58;;;;;;;28.88;12.38;;;;;;;;;;5055514;28;20102;-53
2021/10/09 10:36:40;;;;;;;21.85;9.98;;;;;;;;;;5055960;28;20044;-53
2021/10/09 10:39:07;;;;;;;28.42;11.80;;;;;;;;;;5056649;28;20048;-53
2021/10/09 10:42:11;;;;;;;27.27;11.30;;;;;;;;;;5055907;28;20165;-53
2021/10/09 10:47:35;;;;;;;31.02;11.10;;;;;;;;;;5055963;28;20028;-53
2021/10/09 10:50:08;;;;;;;30.85;11.02;;;;;;;;;;5056164;28;20025;-53
2021/10/09 10:52:54;;;;;;;27.83;12.48;;;;;;;;;;5055325;28;20044;-53
2021/10/09 10:55:20;;;;;;;27.92;10.82;;;;;;;;;;5055074;28;20028;-53
2021/10/09 10:58:05;;;;;;;28.58;11.70;;;;;;;;;;5055658;28;20474;-53
2021/10/09 11:00:32;;;;;;;27.35;11.65;;;;;;;;;;5055419;28;20474;-53
2021/10/09 11:02:58;;;;;;;22.58;10.63;;;;;;;;;;5053910;28;20335;-53
2021/10/09 11:05:25;;;;;;;27.73;12.32;;;;;;;;;;5055303;28;20071;-53
2021/10/09 11:07:52;;;;;;;23.55;10.85;;;;;;;;;;5055034;28;20370;-53
2021/10/09 11:10:19;;;;;;;24.30;10.82;;;;;;;;;;5055502;28;20021;-53
2021/10/09 11:12:49;;;;;;;29.73;12.30;;;;;;;;;;5054658;28;20036;-53
2021/10/09 11:15:19;;;;;;;21.33;9.07;;;;;;;;;;5054937;28;20103;-53
2021/10/09 11:17:49;;;;;;;26.15;11.38;;;;;;;;;;5054800;28;20383;-53
2021/10/09 11:20:21;;;;;;;30.67;11.50;;;;;;;;;;5055328;28;20155;-53
2021/10/09 11:22:49;;;;;;;23.85;10.40;;;;;;;;;;5055150;28;20363;-53
2021/10/09 11:25:26;;;;;;;18.63;9.98;;;;;;;;;;5054822;28;20099;-53
2021/10/09 11:27:53;;;;;;;22.63;9.88;;;;;;;;;;5055306;28;20446;-54
2021/10/09 11:30:19;;;;;;;20.42;9.40;;;;;;;;;;5054871;28;20174;-54
2021/10/09 11:32:46;;;;;;;23.38;11.30;;;;;;;;;;5054932;28;20029;-53
2021/10/09 11:35:13;;;;;;;24.63;10.80;;;;;;;;;;5054382;28;20029;-54
2021/10/09 11:37:47;;;;;;;21.90;10.35;;;;;;;;;;5054978;28;20030;-53
2021/10/09 11:40:13;;;;;;;30.13;11.90;;;;;;;;;;5055049;28;20451;-53
2021/10/09 11:42:51;;;;;;;20.02;9.73;;;;;;;;;;5054856;28;20032;-54
2021/10/09 11:53:37;;;;;;;18.20;8.95;;;;;;;;;;5054221;28;20044;-53
2021/10/09 11:56:06;;;;;;;20.55;9.25;;;;;;;;;;5054493;28;20102;-53
2021/10/09 11:58:32;;;;;;;17.38;9.32;;;;;;;;;;5054761;28;20029;-53
2021/10/09 12:00:58;;;;;;;21.33;8.82;;;;;;;;;;5054281;28;20371;-53
2021/10/09 12:03:32;;;;;;;16.75;8.30;;;;;;;;;;5053069;28;20044;-53
2021/10/09 12:06:09;;;;;;;24.33;8.98;;;;;;;;;;5054658;28;20013;-53
2021/10/09 12:08:46;;;;;;;21.88;10.30;;;;;;;;;;5054839;28;20091;-53
2021/10/09 12:11:14;;;;;;;19.63;8.93;;;;;;;;;;5054358;28;20125;-53
2021/10/09 12:13:52;;;;;;;19.65;8.02;;;;;;;;;;5053364;28;20029;-53
2021/10/09 12:16:22;;;;;;;14.10;6.90;;;;;;;;;;5054206;28;20030;-53
2021/10/09 12:18:56;;;;;;;23.17;6.97;;;;;;;;;;5054692;28;20025;-53
2021/10/09 12:21:24;;;;;;;19.38;8.93;;;;;;;;;;5054302;28;20021;-53
2021/10/09 12:23:51;;;;;;;23.73;9.63;;;;;;;;;;5053531;28;20098;-53
2021/10/09 12:26:17;;;;;;;18.92;9.43;;;;;;;;;;5053604;28;20461;-53
2021/10/09 12:29:02;;;;;;;17.55;8.90;;;;;;;;;;5054255;28;20354;-53
2021/10/09 12:31:29;;;;;;;20.80;8.43;;;;;;;;;;5053839;28;20025;-53
2021/10/09 12:33:55;;;;;;;18.33;8.90;;;;;;;;;;5053329;28;20032;-53
2021/10/09 12:36:38;;;;;;;15.55;7.50;;;;;;;;;;5053813;28;20120;-53
2021/10/09 12:39:20;;;;;;;14.27;8.15;;;;;;;;;;5054695;28;20041;-53
2021/10/09 12:41:46;;;;;;;19.40;7.70;;;;;;;;;;5053965;28;20162;-53
2021/10/09 12:44:12;;;;;;;18.48;9.43;;;;;;;;;;5053034;28;20017;-53
2021/10/09 12:46:38;;;;;;;17.65;7.38;;;;;;;;;;5052854;28;20029;-53
2021/10/09 12:49:04;;;;;;;14.40;7.88;;;;;;;;;;5053543;28;20035;-53
2021/10/09 12:51:30;;;;;;;22.73;8.23;;;;;;;;;;5053882;28;20021;-53
2021/10/09 12:54:03;;;;;;;19.25;9.50;;;;;;;;;;5053016;28;20040;-53
2021/10/09 12:56:29;;;;;;;20.00;7.75;;;;;;;;;;5053924;28;20105;-53
2021/10/09 12:58:55;;;;;;;12.80;8.27;;;;;;;;;;5053323;28;20411;-53
2021/10/09 13:01:21;;;;;;;19.17;9.60;;;;;;;;;;5051358;28;20025;-53
2021/10/09 13:03:47;;;;;;;17.95;8.30;;;;;;;;;;5052777;28;20068;-54
2021/10/09 13:06:12;;;;;;;17.42;7.53;;;;;;;;;;5053518;28;20029;-53
2021/10/09 13:08:39;;;;;;;15.18;7.25;;;;;;;;;;5053551;28;20025;-53
2021/10/09 13:11:05;;;;;;;19.92;7.70;;;;;;;;;;5053538;28;20032;-53
2021/10/09 13:13:31;;;;;;;17.85;7.40;;;;;;;;;;5051864;28;20079;-53
2021/10/09 13:15:57;;;;;;;17.40;7.72;;;;;;;;;;5053297;28;20036;-53
2021/10/09 13:18:23;;;;;;;18.88;7.90;;;;;;;;;;5053355;28;20028;-53
2021/10/09 13:20:49;;;;;;;15.88;7.75;;;;;;;;;;5053383;28;20338;-53
2021/10/09 13:23:15;;;;;;;15.15;5.93;;;;;;;;;;5052685;28;20078;-53
2021/10/09 13:25:41;;;;;;;17.92;7.80;;;;;;;;;;5052710;28;20021;-53
2021/10/09 13:28:07;;;;;;;15.88;7.28;;;;;;;;;;5052778;28;20580;-53
2021/10/09 13:30:33;;;;;;;11.85;7.03;;;;;;;;;;5052912;28;20234;-53
2021/10/09 13:32:59;;;;;;;14.65;7.10;;;;;;;;;;5053093;28;20348;-53
2021/10/09 13:35:25;;;;;;;16.95;6.80;;;;;;;;;;5051831;28;20614;-53
2021/10/09 13:37:54;;;;;;;14.50;7.13;;;;;;;;;;5052873;28;20025;-53
2021/10/09 13:40:20;;;;;;;17.75;8.18;;;;;;;;;;5052994;28;20040;-53
2021/10/09 13:42:46;;;;;;;20.27;7.43;;;;;;;;;;5052429;28;20223;-53
2021/10/09 13:45:12;;;;;;;16.58;6.88;;;;;;;;;;5052269;28;20354;-53
2021/10/09 13:47:40;;;;;;;19.77;7.97;;;;;;;;;;5052913;28;20086;-53
2021/10/09 13:50:06;;;;;;;25.83;8.32;;;;;;;;;;5052987;28;20051;-53
2021/10/09 13:52:32;;;;;;;16.70;7.50;;;;;;;;;;5052339;28;20037;-53
2021/10/09 13:54:58;;;;;;;13.43;6.78;;;;;;;;;;5052048;28;20028;-53
2021/10/09 13:57:24;;;;;;;16.33;6.72;;;;;;;;;;5052471;28;20096;-53
2021/10/09 13:59:50;;;;;;;12.98;5.95;;;;;;;;;;5052798;28;20032;-53
2021/10/09 14:02:16;;;;;;;12.75;7.13;;;;;;;;;;5050882;28;20036;-53
2021/10/09 14:04:42;;;;;;;12.82;6.47;;;;;;;;;;5052171;28;20021;-54
2021/10/09 14:07:08;;;;;;;19.63;8.32;;;;;;;;;;5052660;28;20065;-53
2021/10/09 14:09:34;;;;;;;18.30;7.88;;;;;;;;;;5052609;28;20036;-53
2021/10/09 14:12:01;;;;;;;17.67;7.35;;;;;;;;;;5052796;28;20025;-53
2021/10/09 14:14:28;;;;;;;15.20;7.38;;;;;;;;;;5051436;28;20021;-53
2021/10/09 14:16:55;;;;;;;14.10;7.05;;;;;;;;;;5052666;28;20025;-53
2021/10/09 14:19:21;;;;;;;17.40;7.10;;;;;;;;;;5052772;28;20028;-53
2021/10/09 14:21:48;;;;;;;21.67;6.93;;;;;;;;;;5052565;28;20032;-53
2021/10/09 14:24:17;;;;;;;18.33;8.00;;;;;;;;;;5051680;28;20033;-53
2021/10/09 14:26:43;;;;;;;15.33;7.37;;;;;;;;;;5052653;28;20036;-53
2021/10/09 14:29:09;;;;;;;14.07;7.05;;;;;;;;;;5052307;28;20211;-54
2021/10/09 14:31:35;;;;;;;16.02;8.18;;;;;;;;;;5052188;28;20127;-53
2021/10/09 14:34:02;;;;;;;17.30;7.35;;;;;;;;;;5051704;28;20432;-53
2021/10/09 14:36:28;;;;;;;15.50;6.72;;;;;;;;;;5051940;28;20025;-53
2021/10/09 14:38:55;;;;;;;14.57;7.07;;;;;;;;;;5052114;28;20025;-53
2021/10/09 14:41:21;;;;;;;15.18;6.30;;;;;;;;;;5052422;28;20470;-53
2021/10/09 14:43:47;;;;;;;16.95;6.57;;;;;;;;;;5051507;28;20039;-54
2021/10/09 14:47:01;;;;;;;16.67;6.60;;;;;;;;;;5053920;28;20100;-54
2021/10/09 14:49:21;;;;;;;15.30;7.75;;;;;;;;;;5055872;28;20413;-53
2021/10/09 15:16:09;;;;;;;11.48;6.05;;;;;;;;;;5054245;28;20063;-54
2021/10/09 15:18:45;;;;;;;13.45;7.05;;;;;;;;;;5055537;28;20062;-54
2021/10/09 15:21:11;;;;;;;15.23;6.15;;;;;;;;;;5055705;28;20028;-53
2021/10/09 15:23:37;;;;;;;14.13;5.90;;;;;;;;;;5054713;28;20350;-53
2021/10/09 15:26:03;;;;;;;10.93;5.85;;;;;;;;;;5055338;28;20041;-53
2021/10/09 15:28:30;;;;;;;13.00;5.82;;;;;;;;;;5055278;28;20029;-53
2021/10/09 15:30:56;;;;;;;14.27;5.45;;;;;;;;;;5055061;28;20090;-53
2021/10/09 15:33:22;;;;;;;14.00;4.97;;;;;;;;;;5055022;28;20037;-53
2021/10/09 15:35:49;;;;;;;18.13;7.07;;;;;;;;;;5054819;28;20021;-53
2021/10/09 15:38:15;;;;;;;14.32;6.15;;;;;;;;;;5055045;28;20072;-53
2021/10/09 15:40:41;;;;;;;14.93;6.28;;;;;;;;;;5054634;28;20355;-53
2021/10/09 15:43:07;;;;;;;13.23;6.13;;;;;;;;;;5055731;28;20021;-54
2021/10/09 15:45:33;;;;;;;12.32;6.15;;;;;;;;;;5054338;28;20025;-53
2021/10/09 15:47:59;;;;;;;14.23;5.72;;;;;;;;;;5054673;28;20025;-53
2021/10/09 15:50:26;;;;;;;12.07;5.60;;;;;;;;;;5054790;28;20497;-53
2021/10/09 15:52:51;;;;;;;15.07;6.18;;;;;;;;;;5054748;28;20095;-53
2021/10/09 15:55:18;;;;;;;19.25;6.22;;;;;;;;;;5053725;28;20420;-54
2021/10/09 15:57:44;;;;;;;9.07;5.15;;;;;;;;;;5054100;28;20438;-54
2021/10/09 16:00:11;;;;;;;17.92;5.07;;;;;;;;;;5054563;28;20032;-53
2021/10/09 16:02:37;;;;;;;11.55;4.57;;;;;;;;;;5052902;28;20095;-53
2021/10/09 16:05:04;;;;;;;9.70;5.15;;;;;;;;;;5053476;28;20025;-53
2021/10/09 16:07:32;;;;;;;9.85;4.65;;;;;;;;;;5054724;28;20253;-54
2021/10/09 16:09:58;;;;;;;14.60;5.40;;;;;;;;;;5054745;28;20025;-53
2021/10/09 16:12:24;;;;;;;14.23;4.60;;;;;;;;;;5054313;28;20044;-54
2021/10/09 16:14:50;;;;;;;9.75;5.25;;;;;;;;;;5053765;28;20051;-53
2021/10/09 16:17:24;;;;;;;10.02;5.80;;;;;;;;;;5053943;28;20439;-53
2021/10/09 16:19:50;;;;;;;10.85;5.15;;;;;;;;;;5053650;28;20021;-53
2021/10/09 16:22:16;;;;;;;17.48;6.32;;;;;;;;;;5054615;28;20085;-53
2021/10/09 16:24:42;;;;;;;12.15;5.00;;;;;;;;;;5053360;28;20021;-54
2021/10/09 16:27:08;;;;;;;15.88;4.78;;;;;;;;;;5054532;28;20025;-54
2021/10/09 16:29:34;;;;;;;12.70;6.70;;;;;;;;;;5054205;28;20029;-53
2021/10/09 16:32:00;;;;;;;15.10;5.53;;;;;;;;;;5053769;28;20040;-53
2021/10/09 16:34:26;;;;;;;9.85;5.32;;;;;;;;;;5052862;28;20017;-53
2021/10/09 16:36:56;;;;;;;21.35;6.15;;;;;;;;;;5054065;28;20036;-53
2021/10/09 16:39:31;;;;;;;10.37;4.70;;;;;;;;;;5053956;28;20451;-53
2021/10/09 16:41:57;;;;;;;18.52;5.82;;;;;;;;;;5054195;28;20079;-53
2021/10/09 16:44:24;;;;;;;16.67;4.65;;;;;;;;;;5052867;28;20029;-53
2021/10/09 16:46:51;;;;;;;14.95;5.28;;;;;;;;;;5053587;28;20025;-53
2021/10/09 16:49:17;;;;;;;10.00;4.63;;;;;;;;;;5053824;28;20082;-53
2021/10/09 16:51:43;;;;;;;14.02;4.88;;;;;;;;;;5053699;28;20477;-53
2021/10/09 16:54:09;;;;;;;9.10;4.65;;;;;;;;;;5052460;28;20443;-53
2021/10/09 16:56:36;;;;;;;10.45;4.82;;;;;;;;;;5053925;28;20099;-53
2021/10/09 16:59:03;;;;;;;8.70;4.93;;;;;;;;;;5053864;28;20379;-53
2021/10/09 17:01:29;;;;;;;14.27;5.13;;;;;;;;;;5051540;28;20028;-54
2021/10/09 17:03:55;;;;;;;9.85;4.65;;;;;;;;;;5052797;28;20033;-53
2021/10/09 17:06:21;;;;;;;9.32;4.95;;;;;;;;;;5053550;28;20029;-53